createdAt,value
2022-11-03T00:01:05.906Z,6.20
2022-11-03T00:02:39.053Z,6.10
2022-11-03T00:04:15.205Z,6.10
2022-11-03T00:06:05.407Z,6.10
2022-11-03T00:07:38.742Z,6.10
2022-11-03T00:09:17.228Z,6.10
2022-11-03T00:10:49.333Z,6.10
2022-11-03T00:12:22.477Z,6.10
2022-11-03T00:13:55.675Z,6.10
2022-11-03T00:15:28.758Z,6.10
2022-11-03T00:17:01.935Z,6.10
2022-11-03T00:18:35.689Z,6.10
2022-11-03T00:20:10.613Z,6.10
2022-11-03T00:21:44.633Z,6.10
2022-11-03T00:23:16.916Z,6.10
2022-11-03T00:24:51.320Z,6.10
2022-11-03T00:26:27.401Z,6.10
2022-11-03T00:27:59.556Z,6.10
2022-11-03T00:29:32.788Z,6.20
2022-11-03T00:31:10.260Z,6.10
2022-11-03T00:32:44.473Z,6.10
2022-11-03T00:34:17.667Z,6.10
2022-11-03T00:35:49.913Z,6.10
2022-11-03T00:37:23.057Z,6.10
2022-11-03T00:38:56.899Z,6.10
2022-11-03T00:40:30.370Z,6.10
2022-11-03T00:42:03.639Z,6.10
2022-11-03T00:43:36.951Z,6.10
2022-11-03T00:45:12.055Z,6.10
2022-11-03T00:46:45.468Z,6.10
2022-11-03T00:48:30.711Z,6.20
2022-11-03T00:50:05.714Z,6.20
2022-11-03T00:51:39.908Z,6.20
2022-11-03T00:53:12.075Z,6.20
2022-11-03T00:54:45.577Z,6.20
2022-11-03T00:56:22.933Z,6.20
2022-11-03T00:57:56.143Z,6.20
2022-11-03T00:59:29.215Z,6.20
2022-11-03T01:01:06.308Z,6.20
2022-11-03T01:02:39.828Z,6.20
2022-11-03T01:04:31.391Z,6.20
2022-11-03T01:06:26.585Z,6.20
2022-11-03T01:09:37.908Z,6.20
2022-11-03T01:11:32.360Z,6.30
2022-11-03T01:13:07.252Z,6.30
2022-11-03T01:14:45.072Z,6.30
2022-11-03T01:16:17.276Z,6.30
2022-11-03T01:17:50.534Z,6.30
2022-11-03T01:19:25.220Z,6.30
2022-11-03T01:20:58.836Z,6.30
2022-11-03T01:22:31.991Z,6.30
2022-11-03T01:24:06.611Z,6.30
2022-11-03T01:25:39.709Z,6.30
2022-11-03T01:27:17.706Z,6.30
2022-11-03T01:28:51.269Z,6.30
2022-11-03T01:30:25.340Z,6.30
2022-11-03T01:31:59.271Z,6.30
2022-11-03T01:33:31.730Z,6.40
2022-11-03T01:35:05.968Z,6.40
2022-11-03T01:36:39.273Z,6.40
2022-11-03T01:38:11.576Z,6.40
2022-11-03T01:39:44.821Z,6.40
2022-11-03T01:41:21.972Z,6.40
2022-11-03T01:42:55.029Z,6.40
2022-11-03T01:44:34.504Z,6.40
2022-11-03T01:46:17.494Z,6.50
2022-11-03T01:47:50.821Z,6.40
2022-11-03T01:49:31.810Z,6.50
2022-11-03T01:51:10.469Z,6.50
2022-11-03T01:52:48.848Z,6.50
2022-11-03T01:54:26.266Z,6.50
2022-11-03T01:56:01.029Z,6.50
2022-11-03T01:57:38.269Z,6.60
2022-11-03T01:59:12.240Z,6.60
2022-11-03T02:00:51.563Z,6.60
2022-11-03T02:02:25.470Z,6.60
2022-11-03T02:04:06.090Z,6.60
2022-11-03T02:05:42.402Z,6.60
2022-11-03T02:07:25.419Z,6.60
2022-11-03T02:09:06.095Z,6.70
2022-11-03T02:10:40.970Z,6.70
2022-11-03T02:12:16.903Z,6.70
2022-11-03T02:13:50.688Z,6.70
2022-11-03T02:15:25.429Z,6.70
2022-11-03T02:17:07.037Z,6.70
2022-11-03T02:18:42.639Z,6.70
2022-11-03T02:20:20.538Z,6.70
2022-11-03T02:22:01.680Z,6.70
2022-11-03T02:23:44.496Z,6.70
2022-11-03T02:25:35.030Z,6.70
2022-11-03T02:27:08.618Z,6.80
2022-11-03T02:28:42.368Z,6.80
2022-11-03T02:30:14.959Z,6.80
2022-11-03T02:31:58.421Z,6.80
2022-11-03T02:33:45.341Z,6.80
2022-11-03T02:35:27.367Z,6.80
2022-11-03T02:37:06.560Z,6.80
2022-11-03T02:38:49.401Z,6.80
2022-11-03T02:40:31.569Z,6.90
2022-11-03T02:42:08.403Z,6.80
2022-11-03T02:43:45.549Z,6.80
2022-11-03T02:45:21.315Z,6.90
2022-11-03T02:47:02.311Z,6.90
2022-11-03T02:48:35.838Z,6.90
2022-11-03T02:50:11.337Z,6.90
2022-11-03T02:51:44.566Z,6.90
2022-11-03T02:53:18.022Z,6.90
2022-11-03T02:54:53.419Z,6.90
2022-11-03T02:56:29.738Z,6.90
2022-11-03T02:58:15.284Z,6.90
2022-11-03T02:59:58.981Z,7.00
2022-11-03T03:01:47.586Z,7.00
2022-11-03T03:03:28.293Z,7.00
2022-11-03T03:05:07.107Z,6.90
2022-11-03T03:06:47.230Z,7.00
2022-11-03T03:08:23.740Z,6.90
2022-11-03T03:10:03.982Z,6.90
2022-11-03T03:11:44.619Z,7.00
2022-11-03T03:13:23.521Z,7.00
2022-11-03T03:15:01.514Z,7.00
2022-11-03T03:16:44.376Z,7.00
2022-11-03T03:18:27.616Z,7.00
2022-11-03T03:20:06.634Z,7.00
2022-11-03T03:21:50.481Z,7.00
2022-11-03T03:23:27.444Z,7.00
2022-11-03T03:25:08.388Z,7.00
2022-11-03T03:26:47.387Z,7.00
2022-11-03T03:28:27.101Z,7.00
2022-11-03T03:30:06.901Z,7.00
2022-11-03T03:31:44.376Z,7.00
2022-11-03T03:33:19.626Z,7.00
2022-11-03T03:34:55.699Z,7.00
2022-11-03T03:36:31.439Z,7.10
2022-11-03T03:38:16.405Z,7.00
2022-11-03T03:39:55.391Z,7.00
2022-11-03T03:41:32.637Z,7.00
2022-11-03T03:43:11.228Z,7.00
2022-11-03T03:44:47.044Z,7.00
2022-11-03T03:46:24.036Z,7.00
2022-11-03T03:47:57.631Z,6.90
2022-11-03T03:49:31.118Z,7.00
2022-11-03T03:51:06.884Z,7.00
2022-11-03T03:52:40.278Z,7.00
2022-11-03T03:54:12.648Z,7.00
2022-11-03T03:55:51.443Z,7.00
2022-11-03T03:57:27.391Z,7.00
2022-11-03T03:59:01.843Z,7.00
2022-11-03T04:00:39.911Z,7.00
2022-11-03T04:02:13.131Z,7.00
2022-11-03T04:03:46.407Z,7.00
2022-11-03T04:05:20.531Z,7.00
2022-11-03T04:07:13.957Z,7.00
2022-11-03T04:08:46.111Z,7.00
2022-11-03T04:10:22.153Z,7.00
2022-11-03T04:12:13.057Z,7.00
2022-11-03T04:14:03.823Z,7.00
2022-11-03T04:15:56.039Z,7.00
2022-11-03T04:19:42.076Z,7.00
2022-11-03T04:21:33.566Z,7.00
2022-11-03T04:23:06.627Z,7.00
2022-11-03T04:24:39.994Z,7.00
2022-11-03T04:26:17.728Z,7.00
2022-11-03T04:27:51.039Z,7.00
2022-11-03T04:29:24.180Z,7.00
2022-11-03T04:30:59.786Z,7.00
2022-11-03T04:32:32.172Z,7.00
2022-11-03T04:34:12.734Z,6.90
2022-11-03T04:35:47.697Z,6.90
2022-11-03T04:37:21.227Z,7.00
2022-11-03T04:38:54.677Z,6.90
2022-11-03T04:40:29.787Z,7.00
2022-11-03T04:42:03.282Z,6.90
2022-11-03T04:43:38.979Z,6.90
2022-11-03T04:45:24.752Z,6.90
2022-11-03T04:46:59.386Z,6.90
2022-11-03T04:48:35.160Z,6.90
2022-11-03T04:50:16.554Z,7.00
2022-11-03T04:51:51.185Z,6.90
2022-11-03T04:53:25.441Z,7.00
2022-11-03T04:54:58.641Z,7.00
2022-11-03T04:56:31.026Z,7.00
2022-11-03T04:58:17.100Z,7.00
2022-11-03T04:59:51.549Z,7.00
2022-11-03T05:01:26.224Z,7.00
2022-11-03T05:03:00.863Z,7.00
2022-11-03T05:04:34.256Z,7.00
2022-11-03T05:06:14.050Z,7.00
2022-11-03T05:07:50.279Z,7.00
2022-11-03T05:09:30.283Z,7.00
2022-11-03T05:11:15.421Z,7.00
2022-11-03T05:12:50.050Z,7.00
2022-11-03T05:14:27.460Z,7.00
2022-11-03T05:16:06.343Z,7.00
2022-11-03T05:17:39.715Z,7.00
2022-11-03T05:19:20.937Z,7.00
2022-11-03T05:20:58.907Z,7.00
2022-11-03T05:22:38.409Z,7.00
2022-11-03T05:25:50.896Z,7.00
2022-11-03T05:27:25.053Z,7.00
2022-11-03T05:29:03.223Z,7.10
2022-11-03T05:30:36.140Z,7.00
2022-11-03T05:32:15.785Z,7.10
2022-11-03T05:33:49.801Z,7.10
2022-11-03T05:35:24.763Z,7.10
2022-11-03T05:36:59.630Z,7.10
2022-11-03T05:38:35.155Z,7.10
2022-11-03T05:40:21.147Z,7.10
2022-11-03T05:41:54.414Z,7.10
2022-11-03T05:43:29.577Z,7.10
2022-11-03T05:45:09.252Z,7.10
2022-11-03T05:46:43.354Z,7.10
2022-11-03T05:48:25.944Z,7.10
2022-11-03T05:50:12.911Z,7.10
2022-11-03T05:51:47.989Z,7.10
2022-11-03T05:53:30.584Z,7.10
2022-11-03T05:55:04.797Z,7.10
2022-11-03T05:56:38.305Z,7.10
2022-11-03T05:58:23.695Z,7.10
2022-11-03T05:59:58.093Z,7.20
2022-11-03T06:01:36.643Z,7.20
2022-11-03T06:03:17.012Z,7.20
2022-11-03T06:04:50.444Z,7.20
2022-11-03T06:06:32.396Z,7.20
2022-11-03T06:08:19.965Z,7.20
2022-11-03T06:09:54.416Z,7.20
2022-11-03T06:11:36.207Z,7.20
2022-11-03T06:13:17.043Z,7.20
2022-11-03T06:14:50.722Z,7.20
2022-11-03T06:16:39.694Z,7.20
2022-11-03T06:18:19.804Z,7.30
2022-11-03T06:19:57.033Z,7.30
2022-11-03T06:21:29.327Z,7.30
2022-11-03T06:23:02.944Z,7.30
2022-11-03T06:24:37.924Z,7.30
2022-11-03T06:26:22.351Z,7.30
2022-11-03T06:28:00.509Z,7.30
2022-11-03T06:29:35.228Z,7.30
2022-11-03T06:31:23.353Z,7.30
2022-11-03T06:33:01.229Z,7.40
2022-11-03T06:34:42.069Z,7.40
2022-11-03T06:36:21.630Z,7.40
2022-11-03T06:37:57.618Z,7.40
2022-11-03T06:39:30.840Z,7.40
2022-11-03T06:41:05.769Z,7.40
2022-11-03T06:42:39.772Z,7.50
2022-11-03T06:44:24.823Z,7.50
2022-11-03T06:46:02.036Z,7.50
2022-11-03T06:47:35.213Z,7.50
2022-11-03T06:49:28.469Z,7.50
2022-11-03T06:51:02.938Z,7.60
2022-11-03T06:52:42.609Z,7.60
2022-11-03T06:54:19.442Z,7.60
2022-11-03T06:55:55.262Z,7.60
2022-11-03T06:57:35.575Z,7.60
2022-11-03T06:59:15.189Z,7.70
2022-11-03T07:00:51.411Z,7.70
2022-11-03T07:02:54.366Z,7.90
2022-11-03T07:04:28.976Z,7.70
2022-11-03T07:06:14.594Z,7.80
2022-11-03T07:07:48.559Z,7.80
2022-11-03T07:09:25.989Z,7.80
2022-11-03T07:11:04.913Z,7.80
2022-11-03T07:12:39.421Z,7.90
2022-11-03T07:14:21.527Z,7.90
2022-11-03T07:15:54.826Z,7.90
2022-11-03T07:17:28.282Z,8.00
2022-11-03T07:19:07.022Z,8.00
2022-11-03T07:20:40.934Z,8.00
2022-11-03T07:22:21.161Z,8.00
2022-11-03T07:23:54.380Z,8.10
2022-11-03T07:25:27.670Z,8.10
2022-11-03T07:27:22.144Z,8.10
2022-11-03T07:28:56.892Z,8.20
2022-11-03T07:30:34.002Z,8.20
2022-11-03T07:32:16.586Z,8.20
2022-11-03T07:33:51.759Z,8.30
2022-11-03T07:36:00.355Z,8.30
2022-11-03T07:37:29.466Z,8.30
2022-11-03T07:39:03.710Z,8.40
2022-11-03T07:40:38.404Z,8.40
2022-11-03T07:42:19.267Z,8.40
2022-11-03T07:43:59.612Z,8.50
2022-11-03T07:45:39.363Z,8.50
2022-11-03T07:47:16.969Z,8.50
2022-11-03T07:48:52.796Z,8.50
2022-11-03T07:50:26.015Z,8.60
2022-11-03T07:52:01.236Z,8.60
2022-11-03T07:53:41.578Z,8.60
2022-11-03T07:55:15.888Z,8.60
2022-11-03T07:56:55.581Z,8.70
2022-11-03T07:58:39.640Z,8.70
2022-11-03T08:00:21.853Z,8.70
2022-11-03T08:01:58.673Z,8.80
2022-11-03T08:03:46.448Z,8.80
2022-11-03T08:06:58.111Z,8.80
2022-11-03T08:08:31.637Z,8.90
2022-11-03T08:10:07.223Z,8.90
2022-11-03T08:11:40.681Z,8.90
2022-11-03T08:13:14.386Z,9.00
2022-11-03T08:14:47.597Z,9.00
2022-11-03T08:16:22.883Z,9.00
2022-11-03T08:17:56.312Z,9.10
2022-11-03T08:19:30.188Z,9.00
2022-11-03T08:21:03.448Z,9.10
2022-11-03T08:22:36.587Z,9.20
2022-11-03T08:24:09.859Z,9.20
2022-11-03T08:25:43.143Z,9.20
2022-11-03T08:27:16.403Z,9.30
2022-11-03T08:28:50.856Z,9.30
2022-11-03T08:30:24.355Z,9.30
2022-11-03T08:31:59.040Z,9.30
2022-11-03T08:33:33.289Z,9.40
2022-11-03T08:35:07.777Z,9.50
2022-11-03T08:36:40.931Z,9.50
2022-11-03T08:38:14.209Z,9.60
2022-11-03T08:39:47.415Z,9.60
2022-11-03T08:41:20.539Z,9.70
2022-11-03T08:42:53.958Z,9.70
2022-11-03T08:44:27.253Z,9.80
2022-11-03T08:46:09.701Z,9.90
2022-11-03T08:47:50.282Z,9.90
2022-11-03T08:49:23.400Z,10.00
2022-11-03T08:50:57.143Z,10.10
2022-11-03T08:52:30.211Z,10.10
2022-11-03T08:54:03.473Z,10.20
2022-11-03T08:55:36.935Z,10.20
2022-11-03T08:57:10.200Z,10.30
2022-11-03T08:58:44.471Z,10.30
2022-11-03T09:00:18.669Z,10.40
2022-11-03T09:01:51.995Z,10.40
2022-11-03T09:03:26.851Z,10.50
2022-11-03T09:05:00.028Z,10.50
2022-11-03T09:06:33.395Z,10.60
2022-11-03T09:12:06.598Z,10.80
2022-11-03T09:13:39.908Z,10.90
2022-11-03T09:15:13.531Z,10.90
2022-11-03T09:16:47.019Z,10.90
2022-11-03T09:18:20.916Z,11.00
2022-11-03T09:19:55.635Z,11.00
2022-11-03T09:21:28.919Z,11.10
2022-11-03T09:23:02.288Z,11.10
2022-11-03T09:24:35.644Z,11.20
2022-11-03T09:26:08.864Z,11.20
2022-11-03T09:27:42.374Z,11.30
2022-11-03T09:29:15.529Z,11.30
2022-11-03T09:30:48.815Z,11.40
2022-11-03T09:32:23.706Z,11.40
2022-11-03T09:33:57.131Z,11.50
2022-11-03T09:35:32.895Z,11.60
2022-11-03T09:37:06.145Z,11.60
2022-11-03T09:38:39.318Z,11.80
2022-11-03T09:40:17.200Z,11.80
2022-11-03T09:41:58.497Z,11.90
2022-11-03T09:43:33.059Z,12.00
2022-11-03T09:45:09.271Z,12.10
2022-11-03T09:46:43.103Z,12.20
2022-11-03T09:48:16.968Z,12.30
2022-11-03T09:50:08.612Z,12.40
2022-11-03T09:51:44.244Z,12.50
2022-11-03T09:53:17.644Z,12.60
2022-11-03T09:54:55.181Z,12.60
2022-11-03T09:56:29.005Z,12.70
2022-11-03T09:58:13.661Z,12.80
2022-11-03T09:59:49.799Z,12.80
2022-11-03T10:01:24.508Z,12.90
2022-11-03T10:02:57.918Z,12.90
2022-11-03T10:04:32.668Z,13.00
2022-11-03T10:06:09.727Z,13.00
2022-11-03T10:07:47.782Z,13.00
2022-11-03T10:09:23.130Z,13.10
2022-11-03T10:10:57.001Z,13.10
2022-11-03T10:12:33.423Z,13.10
2022-11-03T10:14:09.111Z,13.20
2022-11-03T10:15:42.499Z,13.20
2022-11-03T10:17:20.644Z,13.20
2022-11-03T10:18:54.479Z,13.30
2022-11-03T10:20:30.591Z,13.30
2022-11-03T10:22:03.751Z,13.30
2022-11-03T10:23:38.208Z,13.40
2022-11-03T10:25:38.929Z,13.40
2022-11-03T10:27:25.242Z,13.40
2022-11-03T10:29:00.177Z,13.50
2022-11-03T10:30:45.407Z,13.50
2022-11-03T10:32:34.178Z,13.50
2022-11-03T10:34:25.342Z,13.60
2022-11-03T10:36:00.218Z,13.60
2022-11-03T10:37:33.216Z,13.60
2022-11-03T10:39:31.892Z,13.60
2022-11-03T10:41:14.317Z,13.70
2022-11-03T10:43:00.055Z,13.70
2022-11-03T10:44:33.310Z,13.70
2022-11-03T10:48:12.427Z,13.80
2022-11-03T10:49:45.756Z,13.80
2022-11-03T10:51:19.270Z,13.80
2022-11-03T10:52:54.547Z,13.80
2022-11-03T10:54:30.401Z,13.90
2022-11-03T10:56:04.411Z,13.90
2022-11-03T10:57:38.029Z,13.90
2022-11-03T10:59:19.075Z,13.90
2022-11-03T11:00:52.524Z,13.90
2022-11-03T11:02:32.179Z,13.90
2022-11-03T11:04:06.291Z,13.90
2022-11-03T11:05:46.912Z,13.90
2022-11-03T11:07:24.987Z,13.90
2022-11-03T11:09:05.165Z,13.90
2022-11-03T11:10:45.884Z,13.90
2022-11-03T11:12:23.639Z,14.00
2022-11-03T11:14:23.285Z,14.00
2022-11-03T11:15:59.657Z,14.00
2022-11-03T11:17:49.563Z,14.00
2022-11-03T11:19:24.223Z,14.00
2022-11-03T11:20:58.210Z,14.00
2022-11-03T11:22:31.375Z,14.00
2022-11-03T11:24:04.979Z,14.00
2022-11-03T11:26:17.292Z,14.00
2022-11-03T11:28:19.957Z,14.00
2022-11-03T11:29:53.170Z,14.00
2022-11-03T11:31:31.836Z,13.90
2022-11-03T11:33:22.555Z,13.90
2022-11-03T11:34:55.885Z,13.90
2022-11-03T11:36:29.134Z,13.90
2022-11-03T11:39:06.309Z,13.90
2022-11-03T11:40:52.449Z,13.90
2022-11-03T11:42:27.062Z,13.90
2022-11-03T11:44:46.655Z,13.90
2022-11-03T11:46:42.276Z,13.90
2022-11-03T11:48:19.431Z,14.00
2022-11-03T11:50:17.153Z,14.00
2022-11-03T11:51:50.515Z,14.00
2022-11-03T11:53:29.102Z,14.00
2022-11-03T11:55:06.018Z,14.00
2022-11-03T11:56:44.566Z,14.10
2022-11-03T11:58:27.702Z,14.10
2022-11-03T12:00:02.431Z,14.10
2022-11-03T12:01:59.396Z,14.10
2022-11-03T12:03:40.539Z,14.20
2022-11-03T12:05:21.964Z,14.20
2022-11-03T12:06:55.678Z,14.20
2022-11-03T12:08:32.073Z,14.30
2022-11-03T12:10:09.684Z,14.30
2022-11-03T12:11:46.096Z,14.40
2022-11-03T12:13:47.704Z,14.40
2022-11-03T12:15:50.729Z,14.40
2022-11-03T12:17:35.096Z,14.40
2022-11-03T12:19:41.828Z,14.50
2022-11-03T12:21:48.577Z,14.50
2022-11-03T12:23:39.774Z,14.50
2022-11-03T12:25:37.002Z,14.50
2022-11-03T12:27:42.453Z,14.60
2022-11-03T12:29:15.648Z,14.60
2022-11-03T12:30:48.824Z,14.60
2022-11-03T12:32:34.137Z,14.60
2022-11-03T12:34:09.496Z,14.60
2022-11-03T12:35:43.581Z,14.60
2022-11-03T12:37:16.945Z,14.60
2022-11-03T12:38:50.096Z,14.60
2022-11-03T12:40:23.636Z,14.60
2022-11-03T12:41:56.973Z,14.60
2022-11-03T12:43:30.244Z,14.50
2022-11-03T12:47:26.732Z,14.50
2022-11-03T12:49:00.184Z,14.50
2022-11-03T12:50:34.955Z,14.50
2022-11-03T12:52:08.680Z,14.50
2022-11-03T12:53:43.594Z,14.50
2022-11-03T12:55:17.315Z,14.50
2022-11-03T12:56:53.145Z,14.50
2022-11-03T12:58:26.438Z,14.50
2022-11-03T12:59:59.772Z,14.40
2022-11-03T13:01:33.776Z,14.40
2022-11-03T13:03:07.427Z,14.40
2022-11-03T13:04:39.783Z,14.40
2022-11-03T13:06:14.740Z,14.40
2022-11-03T13:07:48.131Z,14.40
2022-11-03T13:09:22.139Z,14.40
2022-11-03T13:10:55.257Z,14.40
2022-11-03T13:12:33.968Z,14.40
2022-11-03T13:14:07.875Z,14.40
2022-11-03T13:15:41.447Z,14.40
2022-11-03T13:17:14.845Z,14.40
2022-11-03T13:18:48.441Z,14.40
2022-11-03T13:20:21.594Z,14.40
2022-11-03T13:21:56.116Z,14.40
2022-11-03T13:23:29.314Z,14.40
2022-11-03T13:25:02.564Z,14.40
2022-11-03T13:26:35.745Z,14.40
2022-11-03T13:28:08.882Z,14.40
2022-11-03T13:29:42.108Z,14.40
2022-11-03T13:31:15.327Z,14.30
2022-11-03T13:32:48.937Z,14.40
2022-11-03T13:34:22.286Z,14.30
2022-11-03T13:35:55.575Z,14.30
2022-11-03T13:37:30.158Z,14.30
2022-11-03T13:39:03.372Z,14.30
2022-11-03T13:40:56.174Z,14.30
2022-11-03T13:42:30.157Z,14.30
2022-11-03T13:44:03.357Z,14.30
2022-11-03T13:45:36.768Z,14.30
2022-11-03T13:47:11.875Z,14.30
2022-11-03T13:49:44.739Z,14.30
2022-11-03T13:50:38.648Z,14.30
2022-11-03T13:52:11.989Z,14.30
2022-11-03T14:01:00.607Z,14.20
2022-11-03T14:04:43.881Z,14.20
2022-11-03T14:06:17.585Z,14.20
2022-11-03T14:07:51.642Z,14.20
2022-11-03T14:09:26.373Z,14.20
2022-11-03T14:11:19.723Z,14.20
2022-11-03T14:12:52.054Z,14.20
2022-11-03T14:14:25.257Z,14.10
2022-11-03T14:15:58.556Z,14.20
2022-11-03T14:17:32.540Z,14.10
2022-11-03T14:19:05.987Z,14.10
2022-11-03T14:20:39.370Z,14.10
2022-11-03T14:22:12.698Z,14.10
2022-11-03T14:23:45.848Z,14.10
2022-11-03T14:25:21.106Z,14.00
2022-11-03T14:26:54.379Z,14.00
2022-11-03T14:28:27.633Z,14.00
2022-11-03T14:30:01.041Z,14.00
2022-11-03T14:31:34.768Z,14.00
2022-11-03T14:33:08.597Z,14.00
2022-11-03T14:34:42.112Z,13.90
2022-11-03T14:36:15.657Z,14.00
2022-11-03T14:37:48.888Z,13.90
2022-11-03T14:39:22.143Z,13.90
2022-11-03T14:41:14.281Z,14.00
2022-11-03T14:42:47.700Z,13.90
2022-11-03T14:44:20.890Z,13.90
2022-11-03T14:45:54.209Z,13.90
2022-11-03T14:47:30.419Z,13.90
2022-11-03T14:49:03.660Z,13.90
2022-11-03T14:50:37.059Z,13.90
2022-11-03T14:52:10.614Z,13.90
2022-11-03T14:53:43.976Z,13.90
2022-11-03T14:55:17.294Z,13.90
2022-11-03T14:56:52.091Z,13.90
2022-11-03T14:58:25.059Z,13.90
2022-11-03T14:59:58.210Z,13.90
2022-11-03T15:01:32.308Z,13.90
2022-11-03T15:03:05.649Z,13.90
2022-11-03T15:04:39.018Z,13.90
2022-11-03T15:06:12.779Z,13.90
2022-11-03T15:07:45.984Z,13.80
2022-11-03T15:09:19.581Z,13.80
2022-11-03T15:10:52.982Z,13.80
2022-11-03T15:12:27.587Z,13.80
2022-11-03T15:14:00.892Z,13.80
2022-11-03T15:15:35.403Z,13.80
2022-11-03T15:17:08.535Z,13.80
2022-11-03T15:18:44.005Z,13.80
2022-11-03T15:20:17.431Z,13.80
2022-11-03T15:21:50.880Z,13.70
2022-11-03T15:25:21.616Z,13.70
2022-11-03T15:26:59.343Z,13.70
2022-11-03T15:28:34.230Z,13.70
2022-11-03T15:30:08.456Z,13.70
2022-11-03T15:31:47.177Z,13.70
2022-11-03T15:33:21.213Z,13.60
2022-11-03T15:34:54.382Z,13.60
2022-11-03T15:36:27.658Z,13.60
2022-11-03T15:38:01.122Z,13.60
2022-11-03T15:39:34.321Z,13.60
2022-11-03T15:41:16.627Z,13.60
2022-11-03T15:42:49.835Z,13.50
2022-11-03T15:44:24.364Z,13.50
2022-11-03T15:45:57.746Z,13.50
2022-11-03T15:47:40.006Z,13.40
2022-11-03T15:49:26.807Z,13.40
2022-11-03T15:51:00.632Z,13.40
2022-11-03T15:52:34.152Z,13.30
2022-11-03T15:54:08.131Z,13.30
2022-11-03T15:55:41.317Z,13.30
2022-11-03T15:58:52.887Z,13.20
2022-11-03T16:00:27.497Z,13.20
2022-11-03T16:02:08.365Z,13.10
2022-11-03T16:03:53.827Z,13.10
2022-11-03T16:05:27.038Z,13.10
2022-11-03T16:07:08.458Z,13.10
2022-11-03T16:08:42.259Z,13.00
2022-11-03T16:10:15.741Z,13.00
2022-11-03T16:11:48.900Z,13.00
2022-11-03T16:13:22.144Z,12.90
2022-11-03T16:14:55.413Z,12.90
2022-11-03T16:16:29.989Z,12.90
2022-11-03T16:18:03.580Z,12.90
2022-11-03T16:19:36.799Z,12.90
2022-11-03T16:21:10.065Z,12.80
2022-11-03T16:22:43.496Z,12.80
2022-11-03T16:24:16.691Z,12.80
2022-11-03T16:25:49.975Z,12.70
2022-11-03T16:27:23.155Z,12.70
2022-11-03T16:28:56.679Z,12.70
2022-11-03T16:30:30.322Z,12.70
2022-11-03T16:32:13.782Z,12.60
2022-11-03T16:33:55.491Z,12.60
2022-11-03T16:35:35.350Z,12.60
2022-11-03T16:37:09.465Z,12.50
2022-11-03T16:38:43.903Z,12.50
2022-11-03T16:40:19.745Z,12.50
2022-11-03T16:41:54.725Z,12.40
2022-11-03T16:43:27.973Z,12.40
2022-11-03T16:45:01.260Z,12.50
2022-11-03T16:46:34.409Z,12.40
2022-11-03T16:48:09.340Z,12.30
2022-11-03T16:49:42.762Z,12.30
2022-11-03T16:51:20.151Z,12.20
2022-11-03T16:52:53.386Z,12.20
2022-11-03T16:54:26.766Z,12.20
2022-11-03T16:56:00.026Z,12.20
2022-11-03T16:57:33.146Z,12.20
2022-11-03T16:59:06.369Z,12.10
2022-11-03T17:00:39.718Z,12.10
2022-11-03T17:02:16.514Z,12.10
2022-11-03T17:03:52.359Z,12.10
2022-11-03T17:05:25.574Z,12.00
2022-11-03T17:06:59.106Z,12.00
2022-11-03T17:08:51.764Z,12.00
2022-11-03T17:10:27.488Z,12.00
2022-11-03T17:12:00.823Z,11.90
2022-11-03T17:13:33.975Z,11.90
2022-11-03T17:15:08.645Z,11.90
2022-11-03T17:16:45.343Z,11.90
2022-11-03T17:18:18.710Z,11.90
2022-11-03T17:19:53.337Z,11.90
2022-11-03T17:21:27.183Z,11.90
2022-11-03T17:23:00.581Z,11.80
2022-11-03T17:24:33.829Z,11.80
2022-11-03T17:26:07.151Z,11.80
2022-11-03T17:27:47.344Z,11.80
2022-11-03T17:29:30.102Z,11.80
2022-11-03T17:31:03.535Z,11.80
2022-11-03T17:32:40.036Z,11.70
2022-11-03T17:34:13.468Z,11.70
2022-11-03T17:35:48.333Z,11.70
2022-11-03T17:37:22.223Z,11.70
2022-11-03T17:38:56.678Z,11.60
2022-11-03T17:40:30.618Z,11.70
2022-11-03T17:42:18.107Z,11.60
2022-11-03T17:43:51.552Z,11.60
2022-11-03T17:45:28.143Z,11.60
2022-11-03T17:47:01.421Z,11.60
2022-11-03T17:48:34.581Z,11.60
2022-11-03T17:50:09.937Z,11.60
2022-11-03T17:51:45.510Z,11.60
2022-11-03T17:53:23.817Z,11.60
2022-11-03T17:55:00.449Z,11.60
2022-11-03T17:56:34.272Z,11.50
2022-11-03T17:58:07.411Z,11.50
2022-11-03T17:59:41.730Z,11.50
2022-11-03T18:01:23.401Z,11.50
2022-11-03T18:02:57.963Z,11.50
2022-11-03T18:04:31.387Z,11.50
2022-11-03T18:06:18.939Z,11.50
2022-11-03T18:07:54.829Z,11.50
2022-11-03T18:09:27.984Z,11.50
2022-11-03T18:11:01.271Z,11.40
2022-11-03T18:13:00.776Z,11.40
2022-11-03T18:14:34.160Z,11.40
2022-11-03T18:16:13.334Z,11.40
2022-11-03T18:17:47.332Z,11.40
2022-11-03T18:19:21.692Z,11.40
2022-11-03T18:20:55.841Z,11.50
2022-11-03T18:22:29.035Z,11.30
2022-11-03T18:24:03.531Z,11.30
2022-11-03T18:25:36.747Z,11.30
2022-11-03T18:27:24.123Z,11.30
2022-11-03T18:28:58.384Z,11.30
2022-11-03T18:30:31.685Z,11.30
2022-11-03T18:32:05.188Z,11.40
2022-11-03T18:33:38.603Z,11.30
2022-11-03T18:35:19.505Z,11.30
2022-11-03T18:36:54.337Z,11.30
2022-11-03T18:38:30.390Z,11.30
2022-11-03T18:40:06.052Z,11.30
2022-11-03T18:41:42.728Z,11.30
2022-11-03T18:43:19.644Z,11.30
2022-11-03T18:44:53.003Z,11.30
2022-11-03T18:46:26.281Z,11.20
2022-11-03T18:47:59.491Z,11.30
2022-11-03T18:49:33.604Z,11.30
2022-11-03T18:51:07.467Z,11.30
2022-11-03T18:52:51.184Z,11.30
2022-11-03T18:54:27.039Z,11.30
2022-11-03T18:56:14.500Z,11.30
2022-11-03T18:57:51.862Z,11.30
2022-11-03T18:59:30.812Z,11.30
2022-11-03T19:01:05.831Z,11.30
2022-11-03T19:02:39.059Z,11.30
2022-11-03T19:04:14.958Z,11.30
2022-11-03T19:05:52.282Z,11.30
2022-11-03T19:07:31.067Z,11.30
2022-11-03T19:09:04.326Z,11.30
2022-11-03T19:10:37.545Z,11.30
2022-11-03T19:12:16.046Z,11.30
2022-11-03T19:13:49.869Z,11.30
2022-11-03T19:15:25.946Z,11.30
2022-11-03T19:17:21.660Z,11.20
2022-11-03T19:18:54.543Z,11.30
2022-11-03T19:20:27.697Z,11.40
2022-11-03T19:22:00.924Z,11.30
2022-11-03T19:23:34.673Z,11.20
2022-11-03T19:25:09.766Z,11.30
2022-11-03T19:26:48.183Z,11.30
2022-11-03T19:28:23.228Z,11.30
2022-11-03T19:29:59.846Z,11.30
2022-11-03T19:31:39.885Z,11.30
2022-11-03T19:33:21.811Z,11.30
2022-11-03T19:35:01.089Z,11.30
2022-11-03T19:36:34.380Z,11.30
2022-11-03T19:38:13.843Z,11.30
2022-11-03T19:39:48.326Z,11.30
2022-11-03T19:41:38.907Z,11.20
2022-11-03T19:43:12.061Z,11.20
2022-11-03T19:44:46.683Z,11.30
2022-11-03T19:46:21.615Z,11.30
2022-11-03T19:49:52.868Z,11.30
2022-11-03T19:51:26.006Z,11.30
2022-11-03T19:53:03.428Z,11.30
2022-11-03T19:54:36.616Z,11.30
2022-11-03T19:56:11.053Z,11.40
2022-11-03T19:57:44.675Z,11.20
2022-11-03T19:59:18.929Z,11.30
2022-11-03T20:00:55.404Z,11.30
2022-11-03T20:02:29.319Z,11.20
2022-11-03T20:04:03.116Z,11.20
2022-11-03T20:05:36.760Z,11.20
2022-11-03T20:07:13.229Z,11.20
2022-11-03T20:08:47.255Z,11.20
2022-11-03T20:10:21.157Z,11.20
2022-11-03T20:11:56.347Z,11.20
2022-11-03T20:13:42.112Z,11.20
2022-11-03T20:15:17.696Z,11.20
2022-11-03T20:16:52.215Z,11.20
2022-11-03T20:18:25.435Z,11.20
2022-11-03T20:19:58.810Z,11.10
2022-11-03T20:21:34.643Z,11.20
2022-11-03T20:23:12.178Z,11.20
2022-11-03T20:24:47.544Z,11.20
2022-11-03T20:26:24.485Z,11.10
2022-11-03T20:27:59.016Z,11.10
2022-11-03T20:29:34.903Z,11.10
2022-11-03T20:31:09.281Z,11.10
2022-11-03T20:32:45.771Z,11.10
2022-11-03T20:34:18.991Z,11.10
2022-11-03T20:35:54.673Z,11.10
2022-11-03T20:37:27.882Z,11.10
2022-11-03T20:39:04.198Z,11.10
2022-11-03T20:40:37.699Z,11.10
2022-11-03T20:42:20.896Z,11.10
2022-11-03T20:43:56.145Z,11.10
2022-11-03T20:45:29.526Z,11.10
2022-11-03T20:47:04.067Z,11.10
2022-11-03T20:48:38.584Z,11.10
2022-11-03T20:50:13.304Z,11.10
2022-11-03T20:51:47.800Z,11.10
2022-11-03T20:53:24.025Z,11.10
2022-11-03T20:54:57.470Z,11.10
2022-11-03T20:56:31.040Z,11.10
2022-11-03T20:58:04.473Z,11.10
2022-11-03T20:59:38.844Z,11.10
2022-11-03T21:01:18.875Z,11.10
2022-11-03T21:02:53.595Z,11.10
2022-11-03T21:04:30.257Z,11.10
2022-11-03T21:06:03.427Z,11.10
2022-11-03T21:07:39.393Z,11.10
2022-11-03T21:09:14.324Z,11.10
2022-11-03T21:10:47.626Z,11.10
2022-11-03T21:12:20.773Z,11.20
2022-11-03T21:13:56.719Z,11.10
2022-11-03T21:16:10.629Z,11.10
2022-11-03T21:17:54.515Z,11.20
2022-11-03T21:21:44.126Z,11.20
2022-11-03T21:23:24.312Z,11.10
2022-11-03T21:24:57.554Z,11.10
2022-11-03T21:26:30.751Z,11.10
2022-11-03T21:28:05.459Z,11.10
2022-11-03T21:29:58.452Z,11.10
2022-11-03T21:31:32.027Z,11.10
2022-11-03T21:33:05.282Z,11.10
2022-11-03T21:34:38.990Z,11.10
2022-11-03T21:36:12.470Z,11.10
2022-11-03T21:37:47.169Z,11.10
2022-11-03T21:39:21.022Z,11.00
2022-11-03T21:41:14.250Z,11.00